Time;durP1;ratioP1;P1;durP2;ratioP2;P2;SDS_P1;SDS_P2;PMS_P1;PMS_P2;Temp;Humidity;BMP_temperature;BMP_pressure;BME280_temperature;BME280_humidity;BME280_pressure;Samples;Min_cycle;Max_cycle;Signal;HPM_P1;HPM_P2
2023/05/02 00:01:30;;;;;;;3.25;2.95;;;19.30;53.20;;;;;;5039822;28;20235;-82
2023/05/02 00:03:57;;;;;;;2.60;2.40;;;19.30;53.30;;;;;;5037527;28;20220;-80
2023/05/02 00:06:24;;;;;;;2.65;2.45;;;19.30;53.20;;;;;;5036539;28;20191;-79
2023/05/02 00:08:52;;;;;;;4.97;3.10;;;19.30;53.30;;;;;;5035288;28;20210;-79
2023/05/02 00:11:21;;;;;;;3.05;2.75;;;19.20;53.20;;;;;;5034955;28;20208;-79
2023/05/02 00:13:49;;;;;;;3.47;2.75;;;19.20;53.20;;;;;;5034782;28;20259;-79
2023/05/02 00:16:16;;;;;;;3.50;2.90;;;19.20;53.30;;;;;;5018232;28;20202;-79
2023/05/02 00:18:44;;;;;;;3.08;2.80;;;19.20;53.30;;;;;;5034836;28;20196;-82
2023/05/02 00:21:11;;;;;;;3.22;2.63;;;19.20;53.30;;;;;;5033865;28;20203;-80
2023/05/02 00:23:38;;;;;;;3.30;3.00;;;19.20;53.40;;;;;;5034612;28;20223;-80
2023/05/02 00:26:08;;;;;;;3.05;2.85;;;19.20;53.30;;;;;;5034074;28;20216;-80
2023/05/02 00:28:39;;;;;;;5.00;2.90;;;19.20;53.50;;;;;;5034656;28;20181;-80
2023/05/02 00:31:06;;;;;;;3.10;2.80;;;19.20;53.50;;;;;;5018280;28;20227;-80
2023/05/02 00:33:33;;;;;;;2.90;2.70;;;19.20;53.50;;;;;;5019258;28;20640;-80
2023/05/02 00:36:00;;;;;;;3.45;3.03;;;19.10;53.30;;;;;;5041824;28;20200;-80
2023/05/02 00:38:27;;;;;;;2.97;2.78;;;19.10;54.00;;;;;;5026489;28;20200;-79
2023/05/02 00:40:55;;;;;;;3.65;2.70;;;19.10;53.90;;;;;;5026288;28;20196;-79
2023/05/02 00:43:22;;;;;;;3.30;2.67;;;19.10;53.20;;;;;;5044004;28;20220;-79
2023/05/02 00:45:51;;;;;;;2.95;2.70;;;19.10;53.30;;;;;;5043766;28;20235;-79
2023/05/02 00:48:20;;;;;;;3.15;2.85;;;19.10;53.30;;;;;;5044004;28;20252;-80
2023/05/02 00:50:47;;;;;;;2.97;2.70;;;19.10;53.40;;;;;;5043716;28;20341;-79
2023/05/02 00:53:15;;;;;;;2.92;2.70;;;19.00;53.40;;;;;;5028371;28;20216;-80
2023/05/02 00:55:42;;;;;;;3.08;2.78;;;19.00;53.40;;;;;;5044881;28;20258;-80
2023/05/02 00:58:11;;;;;;;2.75;2.55;;;19.00;53.50;;;;;;5028690;28;20251;-80
2023/05/02 01:00:45;;;;;;;3.17;2.85;;;19.00;53.50;;;;;;5046035;28;20192;-79
2023/05/02 01:03:17;;;;;;;2.88;2.67;;;18.90;53.30;;;;;;5045257;28;20250;-80
2023/05/02 01:05:47;;;;;;;3.03;2.80;;;19.00;53.50;;;;;;5046589;28;20192;-80
2023/05/02 01:08:19;;;;;;;2.72;2.53;;;19.00;53.50;;;;;;5040943;28;20286;-80
2023/05/02 01:10:49;;;;;;;3.05;2.70;;;19.00;53.50;;;;;;5017790;28;20212;-80
2023/05/02 01:13:19;;;;;;;2.95;2.75;;;18.90;53.40;;;;;;5033491;28;20690;-79
2023/05/02 01:15:46;;;;;;;2.90;2.60;;;18.90;53.40;;;;;;5033148;28;20202;-79
2023/05/02 01:18:17;;;;;;;3.53;2.85;;;18.90;53.30;;;;;;5033513;28;20322;-79
2023/05/02 01:20:45;;;;;;;2.80;2.60;;;18.90;53.50;;;;;;5033204;28;20192;-80
2023/05/02 01:23:17;;;;;;;3.58;2.70;;;18.90;53.30;;;;;;5033761;28;20219;-80
2023/05/02 01:26:01;;;;;;;3.13;2.88;;;18.90;53.40;;;;;;5033868;28;20266;-80
2023/05/02 01:28:31;;;;;;;2.90;2.70;;;18.90;53.40;;;;;;5032926;28;20705;-80
2023/05/02 01:30:59;;;;;;;3.00;2.80;;;18.90;53.30;;;;;;5032812;28;20319;-80
2023/05/02 01:33:26;;;;;;;2.83;2.63;;;18.80;53.40;;;;;;5034957;28;20698;-80
2023/05/02 01:35:53;;;;;;;2.80;2.60;;;18.80;53.40;;;;;;5036675;28;20571;-80
2023/05/02 01:38:20;;;;;;;3.22;2.63;;;18.80;53.20;;;;;;5036739;28;20575;-80
2023/05/02 01:40:50;;;;;;;2.95;2.72;;;18.80;53.20;;;;;;5036816;28;20242;-80
2023/05/02 01:43:17;;;;;;;2.80;2.60;;;18.80;53.10;;;;;;5036701;28;20223;-80
2023/05/02 01:45:45;;;;;;;3.13;2.63;;;18.80;53.40;;;;;;5036842;28;20196;-80
2023/05/02 01:48:14;;;;;;;2.90;2.60;;;18.80;53.30;;;;;;5036338;28;20216;-80
2023/05/02 01:50:41;;;;;;;2.90;2.58;;;18.80;53.20;;;;;;5036902;28;20580;-80
2023/05/02 01:53:10;;;;;;;3.15;2.70;;;18.80;53.40;;;;;;5038486;28;20266;-80
2023/05/02 01:55:38;;;;;;;3.10;2.80;;;18.80;53.20;;;;;;5037337;28;20251;-80
2023/05/02 01:58:05;;;;;;;3.08;2.78;;;18.70;53.20;;;;;;5037133;28;20200;-80
2023/05/02 02:00:33;;;;;;;2.83;2.53;;;18.70;53.20;;;;;;5020165;28;20193;-80
2023/05/02 02:03:00;;;;;;;2.95;2.45;;;18.70;53.20;;;;;;5020765;28;20606;-80
2023/05/02 02:05:29;;;;;;;3.78;2.63;;;18.70;53.30;;;;;;5036817;28;20200;-80
2023/05/02 02:07:57;;;;;;;3.10;2.80;;;18.70;53.20;;;;;;5036480;28;20254;-80
2023/05/02 02:10:24;;;;;;;3.13;2.83;;;18.70;53.10;;;;;;5036538;28;20219;-80
2023/05/02 02:12:53;;;;;;;3.13;2.63;;;18.70;53.30;;;;;;5036545;28;20226;-80
2023/05/02 02:15:21;;;;;;;2.75;2.55;;;18.70;53.70;;;;;;5037173;28;20337;-80
2023/05/02 02:17:50;;;;;;;4.18;2.95;;;18.60;53.10;;;;;;5037337;28;20567;-82
2023/05/02 02:20:17;;;;;;;3.10;2.78;;;18.70;53.10;;;;;;5035924;28;20210;-82
2023/05/02 02:22:45;;;;;;;2.70;2.50;;;18.60;53.00;;;;;;5036017;28;20223;-81
2023/05/02 02:25:15;;;;;;;2.70;2.50;;;18.70;53.00;;;;;;5035519;28;20579;-82
2023/05/02 02:27:43;;;;;;;2.70;2.50;;;18.60;53.10;;;;;;5036115;28;20250;-82
2023/05/02 02:30:11;;;;;;;2.58;2.38;;;18.70;53.20;;;;;;5035754;28;20578;-82
2023/05/02 02:32:38;;;;;;;2.28;2.15;;;18.60;53.00;;;;;;5036106;28;20223;-82
2023/05/02 02:35:06;;;;;;;3.05;2.40;;;18.50;53.00;;;;;;5036077;28;20200;-82
2023/05/02 02:37:35;;;;;;;3.38;2.70;;;18.60;53.10;;;;;;5036114;28;20276;-82
2023/05/02 02:40:08;;;;;;;2.60;2.40;;;18.60;53.00;;;;;;5019523;28;20243;-81
2023/05/02 02:42:39;;;;;;;3.10;2.80;;;18.60;53.00;;;;;;5035594;28;20694;-81
2023/05/02 02:45:13;;;;;;;2.90;2.45;;;18.50;53.50;;;;;;5034907;28;20196;-81
2023/05/02 02:47:42;;;;;;;2.70;2.50;;;18.50;53.00;;;;;;5035778;28;20196;-81
2023/05/02 02:50:15;;;;;;;2.63;2.42;;;18.50;53.10;;;;;;5036055;28;20216;-82
2023/05/02 02:52:52;;;;;;;2.70;2.50;;;18.50;53.00;;;;;;5045743;28;20227;-82
2023/05/02 02:55:29;;;;;;;3.10;2.80;;;18.50;52.90;;;;;;5036307;28;20196;-82
2023/05/02 02:57:59;;;;;;;2.78;2.58;;;18.50;53.00;;;;;;5035573;28;20657;-82
2023/05/02 03:00:27;;;;;;;2.60;2.40;;;18.50;52.90;;;;;;5035222;28;20206;-82
2023/05/02 03:02:54;;;;;;;3.90;2.47;;;18.50;53.60;;;;;;5035375;28;20390;-82
2023/05/02 03:05:21;;;;;;;3.25;2.63;;;18.50;52.90;;;;;;5036618;28;20666;-82
2023/05/02 03:07:49;;;;;;;2.83;2.63;;;18.40;52.70;;;;;;5037362;28;20204;-82
2023/05/02 03:10:17;;;;;;;2.90;2.70;;;18.50;52.80;;;;;;5036654;28;20216;-82
2023/05/02 03:12:46;;;;;;;3.13;2.92;;;18.50;52.70;;;;;;5035356;28;20251;-82
2023/05/02 03:15:30;;;;;;;2.90;2.70;;;18.50;52.70;;;;;;5035441;28;20200;-82
2023/05/02 03:17:58;;;;;;;2.80;2.60;;;18.40;53.00;;;;;;5037086;28;20590;-82
2023/05/02 03:20:26;;;;;;;2.78;2.50;;;18.40;53.00;;;;;;5035166;28;20196;-82
2023/05/02 03:22:53;;;;;;;3.03;2.83;;;18.40;53.00;;;;;;5034858;28;20216;-82
2023/05/02 03:25:20;;;;;;;2.55;2.35;;;18.50;52.90;;;;;;5034667;28;20199;-82
2023/05/02 03:27:51;;;;;;;3.10;2.42;;;18.50;52.90;;;;;;5035521;28;20200;-82
2023/05/02 03:30:19;;;;;;;2.63;2.42;;;18.40;52.70;;;;;;5035352;28;20215;-82
2023/05/02 03:32:46;;;;;;;2.80;2.60;;;18.50;52.90;;;;;;5035363;28;20219;-82
2023/05/02 03:35:15;;;;;;;3.90;2.47;;;18.40;53.00;;;;;;5035388;28;20200;-82
2023/05/02 03:37:45;;;;;;;3.25;2.95;;;18.50;53.10;;;;;;5036092;28;20330;-82
2023/05/02 03:40:13;;;;;;;3.03;2.47;;;18.50;53.10;;;;;;5054687;28;20192;-82
2023/05/02 03:42:42;;;;;;;2.47;2.30;;;18.50;53.00;;;;;;5058857;28;20220;-82
2023/05/02 03:45:22;;;;;;;2.80;2.60;;;18.50;53.10;;;;;;5058891;28;20199;-82
2023/05/02 03:47:52;;;;;;;2.60;2.40;;;18.50;52.80;;;;;;5058876;28;20176;-82
2023/05/02 03:50:19;;;;;;;2.70;2.50;;;18.50;52.80;;;;;;5052035;28;20682;-82
2023/05/02 03:52:48;;;;;;;2.90;2.70;;;18.50;52.90;;;;;;5035160;28;20227;-81
2023/05/02 03:55:20;;;;;;;2.55;2.40;;;18.50;52.80;;;;;;5034864;28;20302;-81
2023/05/02 03:57:48;;;;;;;2.50;2.35;;;18.50;52.80;;;;;;5033995;28;20282;-82
2023/05/02 04:00:16;;;;;;;3.10;2.70;;;18.50;52.80;;;;;;5034229;28;20192;-82
2023/05/02 04:02:51;;;;;;;2.90;2.40;;;18.50;52.70;;;;;;5034365;28;20222;-82
2023/05/02 04:05:22;;;;;;;2.35;2.22;;;18.50;52.70;;;;;;5036334;28;20196;-82
2023/05/02 04:07:50;;;;;;;3.78;2.50;;;18.60;52.70;;;;;;5036736;28;20200;-82
2023/05/02 04:10:18;;;;;;;2.80;2.60;;;18.60;52.60;;;;;;5036424;28;20220;-84
2023/05/02 04:12:54;;;;;;;2.55;2.35;;;18.60;52.50;;;;;;5036709;28;20242;-84
2023/05/02 04:15:22;;;;;;;2.58;2.38;;;18.60;52.60;;;;;;5039066;28;20204;-83
2023/05/02 04:17:53;;;;;;;4.57;2.67;;;18.60;52.60;;;;;;5034120;28;20448;-83
2023/05/02 04:20:21;;;;;;;3.22;3.03;;;18.60;52.80;;;;;;5036944;28;20215;-83
2023/05/02 04:22:50;;;;;;;3.10;2.80;;;18.70;53.50;;;;;;5021545;28;20274;-83
2023/05/02 04:25:18;;;;;;;6.78;2.70;;;18.60;53.60;;;;;;5019838;28;20223;-83
2023/05/02 04:27:46;;;;;;;3.10;2.90;;;18.60;54.20;;;;;;5021719;28;20211;-83
2023/05/02 04:30:16;;;;;;;3.40;2.85;;;18.70;54.60;;;;;;5038199;28;20271;-83
2023/05/02 04:32:52;;;;;;;3.00;2.80;;;18.70;54.00;;;;;;5038529;28;20243;-83
2023/05/02 04:35:20;;;;;;;3.10;2.80;;;18.80;54.30;;;;;;5038984;28;20203;-83
2023/05/02 04:37:47;;;;;;;2.90;2.70;;;18.80;54.00;;;;;;5038172;28;20199;-83
2023/05/02 04:40:16;;;;;;;3.45;3.15;;;18.80;53.80;;;;;;5038036;28;20663;-84
2023/05/02 04:42:46;;;;;;;5.47;2.88;;;18.90;53.70;;;;;;5036840;28;20261;-83
2023/05/02 04:45:22;;;;;;;4.28;2.67;;;18.90;53.70;;;;;;5037665;28;20202;-83
2023/05/02 04:47:50;;;;;;;3.22;2.60;;;19.00;53.80;;;;;;5036870;28;20196;-84
2023/05/02 04:50:18;;;;;;;4.57;2.72;;;19.00;53.30;;;;;;5036735;28;20207;-83
2023/05/02 04:52:46;;;;;;;3.67;2.60;;;19.00;53.20;;;;;;5036004;28;20303;-83
2023/05/02 04:55:13;;;;;;;3.00;2.80;;;19.10;53.60;;;;;;5036614;28;20248;-83
2023/05/02 04:57:41;;;;;;;4.95;3.15;;;19.10;53.50;;;;;;5036472;28;20196;-84
2023/05/02 05:00:12;;;;;;;2.85;2.65;;;19.20;53.70;;;;;;5036068;28;20198;-84
2023/05/02 05:02:39;;;;;;;4.80;2.63;;;19.20;53.90;;;;;;5032819;28;20216;-84
2023/05/02 05:05:08;;;;;;;3.00;2.70;;;19.20;53.50;;;;;;5034072;28;20200;-83
2023/05/02 05:07:36;;;;;;;3.17;2.60;;;19.20;53.40;;;;;;5034892;28;20189;-83
2023/05/02 05:10:05;;;;;;;3.50;2.90;;;19.20;53.30;;;;;;5037476;28;20204;-84
2023/05/02 05:12:39;;;;;;;3.88;2.47;;;19.30;53.50;;;;;;5037146;28;20219;-84
2023/05/02 05:15:08;;;;;;;2.67;2.47;;;19.30;53.40;;;;;;5037103;28;20273;-82
2023/05/02 05:17:36;;;;;;;4.20;2.80;;;19.30;53.60;;;;;;5037562;28;20206;-83
2023/05/02 05:20:05;;;;;;;3.00;2.80;;;19.30;53.20;;;;;;5039468;28;20196;-84
2023/05/02 05:22:32;;;;;;;3.72;2.80;;;19.30;53.00;;;;;;5037120;28;20733;-85
2023/05/02 05:25:00;;;;;;;2.88;2.67;;;19.30;52.90;;;;;;5038095;28;20283;-84
2023/05/02 05:27:30;;;;;;;2.78;2.40;;;19.30;52.90;;;;;;5021392;28;20200;-84
2023/05/02 05:29:57;;;;;;;3.88;2.65;;;19.30;52.70;;;;;;5036587;28;20551;-84
2023/05/02 05:32:25;;;;;;;2.90;2.70;;;19.30;52.60;;;;;;5037411;28;20226;-84
2023/05/02 05:34:52;;;;;;;2.90;2.70;;;19.30;52.40;;;;;;5036583;28;20286;-84
2023/05/02 05:37:20;;;;;;;3.35;3.05;;;19.30;52.40;;;;;;5036759;28;20188;-82
2023/05/02 05:39:47;;;;;;;2.90;2.70;;;19.30;52.20;;;;;;5036220;28;20192;-82
2023/05/02 05:42:16;;;;;;;2.92;2.72;;;19.30;52.20;;;;;;5036206;28;20270;-82
2023/05/02 05:44:46;;;;;;;3.10;2.83;;;19.40;52.40;;;;;;5036321;28;20262;-82
2023/05/02 05:47:19;;;;;;;4.63;2.75;;;19.40;52.40;;;;;;5036379;28;20748;-83
2023/05/02 05:49:46;;;;;;;3.40;3.10;;;19.40;52.30;;;;;;5036862;28;20207;-83
2023/05/02 05:52:13;;;;;;;3.13;2.83;;;19.40;52.10;;;;;;5035969;28;20215;-83
2023/05/02 05:54:40;;;;;;;4.70;2.97;;;19.50;52.00;;;;;;5036248;28;20650;-83
2023/05/02 05:57:08;;;;;;;3.10;2.90;;;19.50;52.00;;;;;;5037018;28;20196;-83
2023/05/02 05:59:37;;;;;;;3.45;3.10;;;19.50;52.00;;;;;;5021319;28;20199;-83
2023/05/02 06:02:06;;;;;;;2.85;2.65;;;19.60;52.00;;;;;;5037115;28;20212;-83
2023/05/02 06:04:33;;;;;;;4.28;3.00;;;19.60;52.50;;;;;;5037891;28;20239;-83
2023/05/02 06:07:00;;;;;;;3.33;3.03;;;19.60;51.80;;;;;;5037022;28;20196;-83
2023/05/02 06:09:28;;;;;;;3.55;3.00;;;19.70;51.80;;;;;;5036444;28;20662;-84
2023/05/02 06:11:55;;;;;;;4.00;2.67;;;19.70;51.70;;;;;;5035616;28;20262;-83
2023/05/02 06:14:23;;;;;;;3.40;2.97;;;19.70;51.60;;;;;;5036813;28;20192;-83
2023/05/02 06:16:52;;;;;;;3.30;3.00;;;19.80;51.60;;;;;;5036985;28;20196;-83
2023/05/02 06:19:20;;;;;;;3.70;3.20;;;19.80;51.60;;;;;;5035769;28;20681;-83
2023/05/02 06:21:47;;;;;;;3.53;3.22;;;19.90;51.60;;;;;;5035884;28;20242;-84
2023/05/02 06:24:14;;;;;;;3.20;2.90;;;19.90;51.50;;;;;;5035731;28;20200;-83
2023/05/02 06:26:41;;;;;;;4.65;2.88;;;19.90;51.50;;;;;;5035858;28;20290;-84
2023/05/02 06:29:08;;;;;;;4.88;3.28;;;19.90;51.30;;;;;;5035947;28;20204;-84
2023/05/02 06:31:35;;;;;;;3.95;3.35;;;19.90;51.40;;;;;;5035686;28;20252;-83
2023/05/02 06:34:03;;;;;;;3.83;3.40;;;19.90;51.50;;;;;;5035595;28;20580;-84
2023/05/02 06:36:31;;;;;;;3.40;3.10;;;20.00;51.50;;;;;;5035965;28;20203;-84
2023/05/02 06:38:58;;;;;;;3.80;3.50;;;19.90;51.30;;;;;;5037183;28;20195;-84
2023/05/02 06:41:25;;;;;;;3.70;3.35;;;19.90;51.20;;;;;;5035831;28;20199;-84
2023/05/02 06:43:53;;;;;;;5.18;3.72;;;19.90;51.20;;;;;;5035453;28;20328;-84
2023/05/02 06:46:20;;;;;;;4.05;3.65;;;20.00;51.10;;;;;;5035582;28;20204;-84
2023/05/02 06:48:47;;;;;;;4.22;3.83;;;20.00;51.00;;;;;;5035295;28;20201;-82
2023/05/02 06:51:16;;;;;;;3.75;3.45;;;20.00;51.00;;;;;;5035787;28;20678;-82
2023/05/02 06:53:43;;;;;;;4.60;4.20;;;20.00;50.80;;;;;;5035161;28;20247;-82
2023/05/02 06:56:10;;;;;;;5.53;3.78;;;20.00;50.70;;;;;;5035889;28;20196;-80
2023/05/02 06:58:37;;;;;;;7.65;5.13;;;20.10;50.70;;;;;;5037021;28;20211;-79
2023/05/02 07:01:05;;;;;;;6.35;4.93;;;20.10;50.90;;;;;;5035592;28;20200;-79
2023/05/02 07:03:31;;;;;;;7.13;4.35;;;20.10;51.10;;;;;;5035683;28;20219;-79
2023/05/02 07:05:59;;;;;;;5.70;4.57;;;20.20;51.30;;;;;;5038249;28;20576;-82
2023/05/02 07:08:27;;;;;;;7.35;4.63;;;20.20;51.40;;;;;;5036970;28;20242;-83
2023/05/02 07:10:54;;;;;;;7.03;5.05;;;20.20;51.50;;;;;;5035687;28;20560;-81
2023/05/02 07:13:21;;;;;;;7.43;4.90;;;20.20;51.20;;;;;;5035733;28;20227;-83
2023/05/02 07:15:48;;;;;;;5.68;4.60;;;20.20;51.50;;;;;;5035622;28;20188;-84
2023/05/02 07:18:15;;;;;;;6.53;4.88;;;20.20;51.40;;;;;;5036352;28;20235;-84
2023/05/02 07:20:42;;;;;;;4.30;3.75;;;20.20;51.20;;;;;;5036652;28;20196;-84
2023/05/02 07:23:09;;;;;;;6.68;4.85;;;20.20;51.00;;;;;;5038463;28;20641;-82
2023/05/02 07:25:38;;;;;;;9.13;8.30;;;20.30;51.00;;;;;;5035845;28;20222;-82
2023/05/02 07:28:05;;;;;;;10.30;9.00;;;20.20;49.60;;;;;;5035865;28;20206;-82
2023/05/02 07:30:32;;;;;;;7.75;6.95;;;19.90;50.10;;;;;;5034854;28;20253;-79
2023/05/02 07:32:59;;;;;;;7.68;6.97;;;19.70;50.50;;;;;;5034976;28;20228;-80
2023/05/02 07:35:27;;;;;;;7.10;6.45;;;19.70;51.10;;;;;;5040783;28;20208;-83
2023/05/02 07:37:54;;;;;;;6.70;6.07;;;19.90;52.50;;;;;;5041514;28;20677;-82
2023/05/02 07:40:22;;;;;;;5.63;5.13;;;19.90;53.50;;;;;;5038013;28;20204;-82
2023/05/02 07:42:51;;;;;;;5.57;5.07;;;20.00;52.40;;;;;;5042138;28;20220;-83
2023/05/02 07:45:19;;;;;;;5.72;5.22;;;20.00;52.40;;;;;;5038972;28;20196;-83
2023/05/02 07:47:46;;;;;;;6.22;5.13;;;20.10;52.20;;;;;;5037093;28;20204;-83
2023/05/02 07:50:13;;;;;;;8.50;7.70;;;20.10;52.20;;;;;;5040870;28;20654;-83
2023/05/02 07:52:39;;;;;;;10.95;9.95;;;20.20;50.40;;;;;;5041324;28;20597;-83
2023/05/02 07:55:07;;;;;;;8.43;7.63;;;20.10;49.00;;;;;;5035169;28;20200;-82
2023/05/02 07:57:34;;;;;;;7.75;7.00;;;20.00;50.10;;;;;;5036467;28;20192;-82
2023/05/02 08:00:03;;;;;;;6.78;6.18;;;20.10;50.30;;;;;;5034323;28;20565;-82
2023/05/02 08:02:41;;;;;;;6.35;5.72;;;20.10;50.50;;;;;;5035574;28;20266;-82
2023/05/02 08:05:08;;;;;;;7.05;4.28;;;20.20;50.90;;;;;;5034664;28;20196;-82
2023/05/02 08:07:35;;;;;;;5.45;4.90;;;20.20;50.70;;;;;;5017863;28;20220;-82
2023/05/02 08:10:02;;;;;;;6.35;5.30;;;20.30;50.70;;;;;;5034009;28;20200;-82
2023/05/02 08:12:29;;;;;;;5.43;4.90;;;20.40;52.00;;;;;;5033584;28;20251;-82
2023/05/02 08:14:57;;;;;;;5.63;4.28;;;20.40;51.10;;;;;;5034887;28;20658;-82
2023/05/02 08:17:27;;;;;;;7.75;5.43;;;20.50;51.10;;;;;;5034464;28;20200;-81
2023/05/02 08:19:55;;;;;;;7.80;7.07;;;20.50;51.20;;;;;;5034438;28;20180;-82
2023/05/02 08:22:22;;;;;;;8.45;7.20;;;20.60;50.30;;;;;;5034742;28;20220;-82
2023/05/02 08:24:49;;;;;;;5.82;5.22;;;20.60;50.00;;;;;;5033984;28;20203;-82
2023/05/02 08:27:16;;;;;;;6.53;5.93;;;20.50;49.90;;;;;;5034714;28;20196;-82
2023/05/02 08:29:43;;;;;;;5.57;5.13;;;20.60;49.90;;;;;;5035232;28;20200;-82
2023/05/02 08:32:10;;;;;;;6.47;5.80;;;20.60;50.00;;;;;;5034729;28;20231;-82
2023/05/02 08:34:38;;;;;;;6.15;5.38;;;20.60;49.80;;;;;;5033724;28;20668;-82
2023/05/02 08:37:08;;;;;;;5.85;5.15;;;20.60;49.80;;;;;;5033660;28;20234;-82
2023/05/02 08:39:36;;;;;;;8.45;7.00;;;20.60;49.90;;;;;;5034084;28;20199;-82
2023/05/02 08:42:06;;;;;;;6.45;5.70;;;20.60;49.80;;;;;;5035062;28;20227;-82
2023/05/02 08:44:34;;;;;;;6.55;5.95;;;20.70;49.80;;;;;;5035985;28;20191;-81
2023/05/02 08:47:01;;;;;;;3.40;3.10;;;20.70;49.90;;;;;;5034947;28;20195;-82
2023/05/02 08:49:27;;;;;;;3.47;3.17;;;20.70;49.90;;;;;;5017949;28;20192;-83
2023/05/02 08:51:56;;;;;;;5.82;5.28;;;20.80;49.90;;;;;;5034463;28;20228;-82
2023/05/02 08:54:24;;;;;;;5.40;4.90;;;20.80;50.00;;;;;;5033377;28;20663;-82
2023/05/02 08:56:51;;;;;;;5.50;3.90;;;20.90;49.90;;;;;;5017249;28;20199;-81
2023/05/02 08:59:18;;;;;;;6.78;4.75;;;20.90;49.90;;;;;;5033807;28;20192;-81
2023/05/02 09:01:46;;;;;;;4.38;3.97;;;21.00;49.70;;;;;;5033775;28;20681;-82
2023/05/02 09:04:13;;;;;;;5.15;4.40;;;21.00;49.40;;;;;;5034869;28;20291;-80
2023/05/02 09:06:40;;;;;;;5.40;4.95;;;21.10;49.40;;;;;;5032599;28;20210;-79
2023/05/02 09:09:09;;;;;;;4.68;3.80;;;21.20;49.20;;;;;;5032653;28;20294;-79
2023/05/02 09:11:36;;;;;;;5.47;4.47;;;21.20;49.10;;;;;;5033120;28;20661;-79
2023/05/02 09:14:03;;;;;;;7.43;5.45;;;21.20;49.00;;;;;;5033503;28;20227;-79
2023/05/02 09:16:30;;;;;;;4.30;3.90;;;21.20;49.00;;;;;;5032597;28;20214;-81
2023/05/02 09:18:58;;;;;;;5.75;5.07;;;21.20;48.70;;;;;;5033275;28;20199;-80
2023/05/02 09:21:26;;;;;;;7.05;4.63;;;21.30;48.60;;;;;;5033636;28;20262;-81
2023/05/02 09:23:54;;;;;;;4.70;4.05;;;21.30;48.70;;;;;;5033179;28;20652;-81
2023/05/02 09:26:23;;;;;;;7.05;5.45;;;21.30;48.60;;;;;;5033478;28;20200;-81
2023/05/02 09:28:51;;;;;;;7.55;5.30;;;21.30;48.90;;;;;;5033938;28;20207;-84
2023/05/02 09:31:20;;;;;;;6.55;5.13;;;21.40;48.70;;;;;;5034067;28;20219;-83
2023/05/02 09:33:47;;;;;;;4.78;3.97;;;21.40;48.60;;;;;;5033145;28;20259;-83
2023/05/02 09:36:14;;;;;;;6.57;5.50;;;21.50;48.80;;;;;;5033451;28;20204;-83
2023/05/02 09:38:41;;;;;;;8.48;5.30;;;21.60;49.10;;;;;;5033630;28;20200;-83
2023/05/02 09:41:09;;;;;;;5.45;4.60;;;21.70;48.50;;;;;;5033670;28;20574;-83
2023/05/02 09:43:37;;;;;;;6.45;5.30;;;21.80;48.70;;;;;;5033254;28;20216;-84
2023/05/02 09:46:05;;;;;;;5.72;4.68;;;21.90;49.10;;;;;;5033034;28;20200;-84
2023/05/02 09:48:33;;;;;;;6.10;4.60;;;21.90;48.80;;;;;;5033277;28;20228;-83
2023/05/02 09:51:00;;;;;;;4.75;4.03;;;22.00;48.60;;;;;;5034008;28;20235;-83
2023/05/02 09:53:28;;;;;;;4.55;4.10;;;22.10;48.70;;;;;;5033520;28;20220;-84
2023/05/02 09:56:02;;;;;;;7.28;6.15;;;22.20;48.50;;;;;;5036572;28;20662;-84
2023/05/02 09:58:30;;;;;;;5.20;4.70;;;22.30;48.10;;;;;;5036195;28;20223;-84
2023/05/02 10:00:59;;;;;;;6.47;5.80;;;22.40;47.70;;;;;;5036190;28;20200;-84
2023/05/02 10:03:27;;;;;;;7.03;6.30;;;22.60;47.60;;;;;;5036897;28;20208;-83
2023/05/02 10:05:55;;;;;;;5.80;5.28;;;22.70;47.20;;;;;;5037253;28;20200;-82
2023/05/02 10:08:26;;;;;;;6.22;5.63;;;22.80;46.90;;;;;;5037616;28;20207;-83
2023/05/02 10:10:54;;;;;;;6.55;5.53;;;22.90;46.80;;;;;;5036746;28;20570;-84
2023/05/02 10:13:25;;;;;;;5.30;4.05;;;23.00;46.60;;;;;;5036016;28;20220;-84
2023/05/02 10:15:57;;;;;;;6.25;5.25;;;23.00;46.50;;;;;;5036223;28;20279;-85
2023/05/02 10:18:29;;;;;;;6.35;5.38;;;23.10;46.30;;;;;;5037144;28;20274;-82
2023/05/02 10:20:57;;;;;;;5.50;4.20;;;23.10;46.30;;;;;;5037757;28;20643;-82
2023/05/02 10:23:26;;;;;;;5.78;4.28;;;23.10;46.20;;;;;;5037247;28;20653;-82
2023/05/02 10:25:54;;;;;;;7.50;3.75;;;23.10;46.20;;;;;;5037415;28;20196;-83
2023/05/02 10:28:21;;;;;;;5.05;3.10;;;23.10;46.10;;;;;;5036894;28;20291;-83
2023/05/02 10:30:48;;;;;;;4.60;3.70;;;23.20;46.10;;;;;;5036689;28;20232;-82
2023/05/02 10:33:15;;;;;;;4.28;3.88;;;23.20;46.10;;;;;;5020680;28;20281;-82
2023/05/02 10:35:45;;;;;;;5.30;4.63;;;23.10;45.90;;;;;;5036334;28;20200;-82
2023/05/02 10:38:12;;;;;;;3.78;3.38;;;23.10;46.00;;;;;;5037042;28;20286;-82
2023/05/02 10:40:40;;;;;;;4.47;3.40;;;23.20;46.10;;;;;;5035915;28;20207;-82
2023/05/02 10:43:07;;;;;;;4.35;3.80;;;23.10;46.00;;;;;;5035267;28;20212;-82
2023/05/02 10:45:35;;;;;;;3.70;3.40;;;23.10;45.90;;;;;;5035415;28;20196;-82
2023/05/02 10:48:18;;;;;;;3.72;3.20;;;23.10;45.80;;;;;;5035577;28;20196;-83
2023/05/02 10:50:51;;;;;;;3.10;2.80;;;23.10;45.70;;;;;;5035405;28;20196;-83
2023/05/02 10:53:25;;;;;;;4.00;2.70;;;23.20;45.80;;;;;;5035149;28;20216;-83
2023/05/02 10:56:24;;;;;;;4.30;3.45;;;23.20;45.80;;;;;;5035629;28;20196;-83
2023/05/02 10:58:53;;;;;;;3.22;2.92;;;23.20;45.70;;;;;;4959864;28;20233;-83
2023/05/02 11:01:36;;;;;;;4.20;2.70;;;23.20;45.70;;;;;;5020169;28;20196;-83
2023/05/02 11:04:05;;;;;;;3.78;2.72;;;23.20;45.70;;;;;;5035311;28;20216;-83
2023/05/02 11:06:34;;;;;;;3.28;2.75;;;23.20;45.70;;;;;;5034662;28;20204;-83
2023/05/02 11:09:35;;;;;;;3.40;3.10;;;23.20;45.60;;;;;;5035853;28;20207;-81
2023/05/02 11:12:07;;;;;;;4.20;2.90;;;23.20;45.60;;;;;;5036304;28;20231;-81
2023/05/02 11:14:47;;;;;;;3.25;2.95;;;23.20;45.50;;;;;;5035602;28;20223;-81
2023/05/02 11:17:14;;;;;;;3.45;2.90;;;23.20;45.60;;;;;;5035546;28;20200;-81
2023/05/02 11:20:27;;;;;;;3.38;3.08;;;23.20;45.50;;;;;;5035179;28;20258;-82
2023/05/02 11:23:01;;;;;;;3.10;2.90;;;23.20;45.60;;;;;;5035490;28;20266;-81
2023/05/02 11:25:33;;;;;;;2.75;2.55;;;23.20;45.70;;;;;;5035005;28;20278;-82
2023/05/02 11:28:00;;;;;;;3.13;2.83;;;23.10;45.60;;;;;;5035657;28;20206;-82
2023/05/02 11:30:44;;;;;;;3.00;2.70;;;23.10;45.60;;;;;;5035506;28;20215;-82
2023/05/02 11:33:14;;;;;;;3.25;2.70;;;23.10;45.70;;;;;;5033083;28;20253;-82
2023/05/02 11:35:42;;;;;;;2.95;2.50;;;23.10;45.60;;;;;;5034449;28;20639;-81
2023/05/02 11:38:12;;;;;;;3.90;3.10;;;23.10;45.60;;;;;;5034218;28;20200;-82
2023/05/02 11:40:39;;;;;;;3.33;2.80;;;23.10;45.50;;;;;;5034320;28;20204;-82
2023/05/02 11:43:12;;;;;;;3.00;2.67;;;23.20;45.50;;;;;;5035249;28;20594;-81
2023/05/02 11:45:41;;;;;;;2.88;2.67;;;23.20;45.50;;;;;;5036575;28;20192;-81
2023/05/02 11:48:08;;;;;;;2.95;2.65;;;23.20;45.50;;;;;;5036696;28;20200;-81
2023/05/02 11:50:41;;;;;;;3.33;2.70;;;23.10;45.40;;;;;;5037785;28;20199;-81
2023/05/02 11:53:12;;;;;;;3.33;2.55;;;23.10;45.50;;;;;;5037581;28;20223;-81
2023/05/02 11:55:45;;;;;;;3.67;2.90;;;23.20;45.60;;;;;;5036864;28;20236;-82
2023/05/02 11:58:16;;;;;;;2.63;2.42;;;23.20;45.50;;;;;;5036447;28;20242;-82
2023/05/02 12:00:45;;;;;;;3.30;3.00;;;23.10;45.40;;;;;;5035836;28;20206;-82
2023/05/02 12:03:27;;;;;;;3.03;2.60;;;23.10;45.40;;;;;;5035910;28;20586;-82
2023/05/02 12:05:54;;;;;;;2.97;2.67;;;23.20;45.50;;;;;;5018746;28;20207;-81
2023/05/02 12:08:35;;;;;;;2.88;2.67;;;23.20;45.40;;;;;;5034713;28;20200;-81
2023/05/02 12:11:02;;;;;;;2.97;2.67;;;23.20;45.40;;;;;;5035035;28;20211;-81
2023/05/02 12:13:29;;;;;;;2.70;2.50;;;23.20;45.40;;;;;;5035934;28;20231;-81
2023/05/02 12:15:56;;;;;;;3.00;2.80;;;23.20;45.50;;;;;;5034289;28;20196;-82
2023/05/02 12:18:24;;;;;;;3.17;2.60;;;23.10;45.40;;;;;;5034496;28;20200;-82
2023/05/02 12:20:51;;;;;;;2.95;2.72;;;23.10;45.50;;;;;;5035050;28;20200;-82
2023/05/02 12:23:19;;;;;;;2.80;2.60;;;23.10;45.60;;;;;;5019589;28;20219;-82
2023/05/02 12:25:49;;;;;;;3.05;2.70;;;23.10;45.70;;;;;;5036118;28;20269;-82
2023/05/02 12:28:17;;;;;;;2.90;2.60;;;23.10;45.70;;;;;;5033445;28;20218;-82
2023/05/02 12:30:49;;;;;;;2.70;2.50;;;23.10;45.60;;;;;;5033687;28;20235;-82
2023/05/02 12:33:16;;;;;;;2.72;2.53;;;23.10;45.50;;;;;;5034421;28;20216;-82
2023/05/02 12:35:44;;;;;;;3.10;2.80;;;23.10;45.40;;;;;;5033541;28;20279;-82
2023/05/02 12:38:13;;;;;;;2.88;2.67;;;23.20;45.50;;;;;;5033005;28;20199;-82
2023/05/02 12:40:46;;;;;;;2.53;2.33;;;23.20;45.40;;;;;;5033036;28;20261;-82
2023/05/02 12:43:14;;;;;;;2.90;2.70;;;23.20;45.30;;;;;;5033250;28;20235;-82
2023/05/02 12:45:42;;;;;;;3.08;2.78;;;23.30;45.30;;;;;;5033245;28;20211;-82
2023/05/02 12:48:23;;;;;;;3.28;2.97;;;23.20;45.20;;;;;;5033165;28;20291;-82
2023/05/02 12:50:50;;;;;;;3.20;2.90;;;23.30;45.20;;;;;;5032936;28;20543;-81
2023/05/02 12:53:17;;;;;;;2.92;2.72;;;23.30;45.20;;;;;;5032648;28;20274;-81
2023/05/02 12:55:45;;;;;;;3.55;3.35;;;23.30;45.20;;;;;;5032876;28;20200;-82
2023/05/02 12:58:14;;;;;;;3.42;3.13;;;23.30;45.10;;;;;;5032814;28;20287;-82